Airfield :
LOGIN :

Register | Disclaimer

   EN    FR    IT 

 










Legend :    VFR   Marginal VFR   IFR   Intensive IFR   Very Intensive IFR
Visi :
Ceiling :
>= 8 km
>= 3000ft
5 to 8 km
1000 to 3000 ft
1500m to 5 km
500 to 1000 ft
800 to 1500m
200 to 500 ft
< 800m
< 200 ft
Symbols :   Thunderstorms  Fog  Heavy snow  Heavy precipitations  Wind > 20 kt
SIGMETs :     Misc.  Thunderstorms  Icing  Turbulence  Mountain Waves  Volcanic Ashes






- Airport Elevation : 286 ft
- IATA code : TRF


ENTO - Sandefjord , Torp

CURRENT METAR :
  • 110150Z AUTO 19028G41KT 3900 RA OVC005/// 06/05 Q0990 RERA

EXPIRED METARs :
  • 110120Z AUTO 19025G37KT 3400 -RASN OVC005/// 05/05 Q0991 RERA
  • 110050Z AUTO 18027G44KT 2400 -RASN OVC004/// 05/05 Q0992 RERA
  • 110020Z AUTO 18025KT 2200 RA SCT002/// OVC005/// 04/04 Q0993
  • 102350Z AUTO 18025KT 6000 RA FEW002/// OVC005/// 04/04 Q0993 RERA
  • 102320Z AUTO 18028KT 4300 -RA BKN005/// OVC007/// 04/04 Q0994

TAF TAF ENTO
Valid from the 11 at 00:00 until the 12 at 00:00 UTC


1100/1124 18025G35KT 7000 -RA SCT008 BKN015
TEMPO 1100/1105 19035G45KT 2000 RADZ BR OVC004
BECMG 1105/1107 22015KT SCT020
PROB30
TEMPO 1105/1108 SHRA SCT010 FEW015CB
TEMPO 1105/1113 23018G28KT



MET'MAP, your aeronautical weather chart ! - Copyright ORBIFLY December 2007 - Disclaimer

ORBIFLY MET'MAP TEAM :

Programming & Development : Alexandra Zaïnal
Concept & original design : Baudouin d'Aumeries
Assistance for programming : Marc-Olivier Méhu
Technical & hardware support : Manuel Goepfert

Contact : metmap@orbifly.com




SOURCES & CREDITS :

   NOAA